sensor_id;sensor_type;location;lat;lon;timestamp;temperature;humidity
78455;SHT31;67751;51.986;5.696;2023-08-17T00:01:55;20.8;64.8
78455;SHT31;67751;51.986;5.696;2023-08-17T00:04:25;20.7;65.2
78455;SHT31;67751;51.986;5.696;2023-08-17T00:06:55;20.7;64.4
78455;SHT31;67751;51.986;5.696;2023-08-17T00:09:24;20.7;65.2
78455;SHT31;67751;51.986;5.696;2023-08-17T00:11:54;20.7;65.6
78455;SHT31;67751;51.986;5.696;2023-08-17T00:14:24;20.7;65.1
78455;SHT31;67751;51.986;5.696;2023-08-17T00:16:53;20.7;65.0
78455;SHT31;67751;51.986;5.696;2023-08-17T00:19:23;20.6;65.4
78455;SHT31;67751;51.986;5.696;2023-08-17T00:21:53;20.6;64.8
78455;SHT31;67751;51.986;5.696;2023-08-17T00:24:23;20.6;64.8
78455;SHT31;67751;51.986;5.696;2023-08-17T00:26:53;20.6;64.8
78455;SHT31;67751;51.986;5.696;2023-08-17T00:29:23;20.6;65.2
78455;SHT31;67751;51.986;5.696;2023-08-17T00:31:52;20.6;64.0
78455;SHT31;67751;51.986;5.696;2023-08-17T00:34:22;20.6;64.2
78455;SHT31;67751;51.986;5.696;2023-08-17T00:36:53;20.6;64.9
78455;SHT31;67751;51.986;5.696;2023-08-17T00:39:23;20.6;65.2
78455;SHT31;67751;51.986;5.696;2023-08-17T00:41:53;20.6;64.2
78455;SHT31;67751;51.986;5.696;2023-08-17T00:44:23;20.6;64.9
78455;SHT31;67751;51.986;5.696;2023-08-17T00:46:52;20.6;64.5
78455;SHT31;67751;51.986;5.696;2023-08-17T00:49:22;20.6;65.0
78455;SHT31;67751;51.986;5.696;2023-08-17T00:51:52;20.5;63.5
78455;SHT31;67751;51.986;5.696;2023-08-17T00:54:24;20.5;63.8
78455;SHT31;67751;51.986;5.696;2023-08-17T00:56:57;20.5;63.3
78455;SHT31;67751;51.986;5.696;2023-08-17T00:59:28;20.5;64.6
78455;SHT31;67751;51.986;5.696;2023-08-17T01:02:00;20.5;63.4
78455;SHT31;67751;51.986;5.696;2023-08-17T01:04:31;20.4;64.5
78455;SHT31;67751;51.986;5.696;2023-08-17T01:07:01;20.4;64.1
78455;SHT31;67751;51.986;5.696;2023-08-17T01:09:31;20.4;64.1
78455;SHT31;67751;51.986;5.696;2023-08-17T01:12:11;20.4;64.7
78455;SHT31;67751;51.986;5.696;2023-08-17T01:15:03;20.4;64.7
78455;SHT31;67751;51.986;5.696;2023-08-17T01:17:31;20.4;64.5
78455;SHT31;67751;51.986;5.696;2023-08-17T01:20:03;20.4;65.9
78455;SHT31;67751;51.986;5.696;2023-08-17T01:22:35;20.3;65.5
78455;SHT31;67751;51.986;5.696;2023-08-17T01:25:09;20.3;65.8
78455;SHT31;67751;51.986;5.696;2023-08-17T01:27:40;20.3;66.3
78455;SHT31;67751;51.986;5.696;2023-08-17T01:30:13;20.3;66.4
78455;SHT31;67751;51.986;5.696;2023-08-17T01:32:49;20.3;67.2
78455;SHT31;67751;51.986;5.696;2023-08-17T01:35:30;20.2;67.0
78455;SHT31;67751;51.986;5.696;2023-08-17T01:38:07;20.2;67.4
78455;SHT31;67751;51.986;5.696;2023-08-17T01:40:38;20.2;67.6
78455;SHT31;67751;51.986;5.696;2023-08-17T01:43:09;20.2;67.0
78455;SHT31;67751;51.986;5.696;2023-08-17T01:45:39;20.1;67.6
78455;SHT31;67751;51.986;5.696;2023-08-17T01:48:09;20.1;67.9
78455;SHT31;67751;51.986;5.696;2023-08-17T01:50:38;20.1;67.8
78455;SHT31;67751;51.986;5.696;2023-08-17T01:53:08;20.1;68.1
78455;SHT31;67751;51.986;5.696;2023-08-17T01:55:39;20.1;67.6
78455;SHT31;67751;51.986;5.696;2023-08-17T01:58:09;20.1;67.8
78455;SHT31;67751;51.986;5.696;2023-08-17T02:00:38;20.1;67.9
78455;SHT31;67751;51.986;5.696;2023-08-17T02:03:08;20.1;68.2
78455;SHT31;67751;51.986;5.696;2023-08-17T02:05:38;20.0;67.2
78455;SHT31;67751;51.986;5.696;2023-08-17T02:08:07;20.0;67.9
78455;SHT31;67751;51.986;5.696;2023-08-17T02:10:37;20.0;67.9
78455;SHT31;67751;51.986;5.696;2023-08-17T02:13:07;20.0;67.6
78455;SHT31;67751;51.986;5.696;2023-08-17T02:15:40;19.9;68.8
78455;SHT31;67751;51.986;5.696;2023-08-17T02:18:10;19.9;68.6
78455;SHT31;67751;51.986;5.696;2023-08-17T02:20:39;19.9;68.6
78455;SHT31;67751;51.986;5.696;2023-08-17T02:23:09;19.9;68.3
78455;SHT31;67751;51.986;5.696;2023-08-17T02:25:40;19.9;68.3
78455;SHT31;67751;51.986;5.696;2023-08-17T02:28:11;19.9;68.2
78455;SHT31;67751;51.986;5.696;2023-08-17T02:30:41;19.9;68.7
78455;SHT31;67751;51.986;5.696;2023-08-17T02:33:13;19.9;68.1
78455;SHT31;67751;51.986;5.696;2023-08-17T02:35:42;19.8;69.0
78455;SHT31;67751;51.986;5.696;2023-08-17T02:38:17;19.8;68.8
78455;SHT31;67751;51.986;5.696;2023-08-17T02:40:48;19.8;69.0
78455;SHT31;67751;51.986;5.696;2023-08-17T02:43:18;19.8;69.1
78455;SHT31;67751;51.986;5.696;2023-08-17T02:45:47;19.8;68.6
78455;SHT31;67751;51.986;5.696;2023-08-17T02:48:22;19.8;68.4
78455;SHT31;67751;51.986;5.696;2023-08-17T02:50:51;19.8;67.7
78455;SHT31;67751;51.986;5.696;2023-08-17T02:53:21;19.8;67.9
78455;SHT31;67751;51.986;5.696;2023-08-17T02:55:51;19.8;67.2
78455;SHT31;67751;51.986;5.696;2023-08-17T02:58:20;19.8;67.8
78455;SHT31;67751;51.986;5.696;2023-08-17T03:00:52;19.8;67.2
78455;SHT31;67751;51.986;5.696;2023-08-17T03:03:22;19.8;67.8
78455;SHT31;67751;51.986;5.696;2023-08-17T03:05:52;19.8;67.9
78455;SHT31;67751;51.986;5.696;2023-08-17T03:08:22;19.7;68.1
78455;SHT31;67751;51.986;5.696;2023-08-17T03:10:53;19.7;67.8
78455;SHT31;67751;51.986;5.696;2023-08-17T03:13:23;19.7;68.0
78455;SHT31;67751;51.986;5.696;2023-08-17T03:15:54;19.7;68.2
78455;SHT31;67751;51.986;5.696;2023-08-17T03:18:24;19.7;68.4
78455;SHT31;67751;51.986;5.696;2023-08-17T03:20:53;19.7;68.2
78455;SHT31;67751;51.986;5.696;2023-08-17T03:23:23;19.7;68.3
78455;SHT31;67751;51.986;5.696;2023-08-17T03:25:53;19.7;67.2
78455;SHT31;67751;51.986;5.696;2023-08-17T03:28:23;19.7;67.3
78455;SHT31;67751;51.986;5.696;2023-08-17T03:30:56;19.7;67.1
78455;SHT31;67751;51.986;5.696;2023-08-17T03:33:26;19.7;67.2
78455;SHT31;67751;51.986;5.696;2023-08-17T03:35:56;19.7;67.8
78455;SHT31;67751;51.986;5.696;2023-08-17T03:38:25;19.7;67.3
78455;SHT31;67751;51.986;5.696;2023-08-17T03:40:55;19.7;66.9
78455;SHT31;67751;51.986;5.696;2023-08-17T03:43:24;19.7;66.1
78455;SHT31;67751;51.986;5.696;2023-08-17T03:45:54;19.7;66.8
78455;SHT31;67751;51.986;5.696;2023-08-17T03:48:24;19.6;67.2
78455;SHT31;67751;51.986;5.696;2023-08-17T03:50:55;19.6;66.7
78455;SHT31;67751;51.986;5.696;2023-08-17T03:53:27;19.6;66.6
78455;SHT31;67751;51.986;5.696;2023-08-17T03:55:58;19.6;66.6
78455;SHT31;67751;51.986;5.696;2023-08-17T03:58:30;19.6;67.2
78455;SHT31;67751;51.986;5.696;2023-08-17T04:01:02;19.6;66.4
78455;SHT31;67751;51.986;5.696;2023-08-17T04:03:34;19.5;67.0
78455;SHT31;67751;51.986;5.696;2023-08-17T04:06:06;19.5;66.4
78455;SHT31;67751;51.986;5.696;2023-08-17T04:08:38;19.5;66.4
78455;SHT31;67751;51.986;5.696;2023-08-17T04:11:07;19.5;66.6
78455;SHT31;67751;51.986;5.696;2023-08-17T04:13:37;19.5;66.6
78455;SHT31;67751;51.986;5.696;2023-08-17T04:16:07;19.4;66.9
78455;SHT31;67751;51.986;5.696;2023-08-17T04:18:36;19.4;67.1
78455;SHT31;67751;51.986;5.696;2023-08-17T04:21:06;19.4;67.2
78455;SHT31;67751;51.986;5.696;2023-08-17T04:23:35;19.4;67.2
78455;SHT31;67751;51.986;5.696;2023-08-17T04:26:05;19.4;67.2
78455;SHT31;67751;51.986;5.696;2023-08-17T04:28:34;19.4;67.6
78455;SHT31;67751;51.986;5.696;2023-08-17T04:31:04;19.4;67.5
78455;SHT31;67751;51.986;5.696;2023-08-17T04:33:34;19.3;67.1
78455;SHT31;67751;51.986;5.696;2023-08-17T04:36:04;19.3;68.0
78455;SHT31;67751;51.986;5.696;2023-08-17T04:38:34;19.3;67.5
78455;SHT31;67751;51.986;5.696;2023-08-17T04:41:03;19.3;67.5
78455;SHT31;67751;51.986;5.696;2023-08-17T04:43:33;19.2;67.8
78455;SHT31;67751;51.986;5.696;2023-08-17T04:46:03;19.2;67.8
78455;SHT31;67751;51.986;5.696;2023-08-17T04:48:32;19.2;67.7
78455;SHT31;67751;51.986;5.696;2023-08-17T04:51:02;19.2;68.1
78455;SHT31;67751;51.986;5.696;2023-08-17T04:53:32;19.1;67.9
78455;SHT31;67751;51.986;5.696;2023-08-17T04:56:02;19.1;68.1
78455;SHT31;67751;51.986;5.696;2023-08-17T04:58:32;19.1;67.9
78455;SHT31;67751;51.986;5.696;2023-08-17T05:01:02;19.1;68.3
78455;SHT31;67751;51.986;5.696;2023-08-17T05:03:32;19.1;68.2
78455;SHT31;67751;51.986;5.696;2023-08-17T05:06:02;19.1;68.3
78455;SHT31;67751;51.986;5.696;2023-08-17T05:08:32;19.1;68.6
78455;SHT31;67751;51.986;5.696;2023-08-17T05:11:04;19.0;68.9
78455;SHT31;67751;51.986;5.696;2023-08-17T05:13:34;19.0;68.8
78455;SHT31;67751;51.986;5.696;2023-08-17T05:16:03;19.0;68.8
78455;SHT31;67751;51.986;5.696;2023-08-17T05:18:33;19.0;68.9
78455;SHT31;67751;51.986;5.696;2023-08-17T05:21:02;19.0;69.1
78455;SHT31;67751;51.986;5.696;2023-08-17T05:23:32;19.0;69.6
78455;SHT31;67751;51.986;5.696;2023-08-17T05:26:04;19.0;69.4
78455;SHT31;67751;51.986;5.696;2023-08-17T05:28:33;19.0;68.5
78455;SHT31;67751;51.986;5.696;2023-08-17T05:31:06;19.0;69.2
78455;SHT31;67751;51.986;5.696;2023-08-17T05:33:35;19.0;69.2
78455;SHT31;67751;51.986;5.696;2023-08-17T05:36:08;19.0;69.3
78455;SHT31;67751;51.986;5.696;2023-08-17T05:38:38;19.0;69.0
78455;SHT31;67751;51.986;5.696;2023-08-17T05:41:08;19.0;69.1
78455;SHT31;67751;51.986;5.696;2023-08-17T05:43:37;19.0;69.4
78455;SHT31;67751;51.986;5.696;2023-08-17T05:46:09;19.0;69.2
78455;SHT31;67751;51.986;5.696;2023-08-17T05:48:38;19.0;68.9
78455;SHT31;67751;51.986;5.696;2023-08-17T05:51:08;19.0;69.6
78455;SHT31;67751;51.986;5.696;2023-08-17T05:53:40;19.0;69.4
78455;SHT31;67751;51.986;5.696;2023-08-17T05:56:09;19.0;69.4
78455;SHT31;67751;51.986;5.696;2023-08-17T05:58:39;19.0;69.3
78455;SHT31;67751;51.986;5.696;2023-08-17T06:01:10;19.0;69.6
78455;SHT31;67751;51.986;5.696;2023-08-17T06:03:40;19.0;69.8
78455;SHT31;67751;51.986;5.696;2023-08-17T06:06:10;19.0;70.3
78455;SHT31;67751;51.986;5.696;2023-08-17T06:08:39;19.0;69.6
78455;SHT31;67751;51.986;5.696;2023-08-17T06:11:09;19.0;70.4
78455;SHT31;67751;51.986;5.696;2023-08-17T06:13:39;19.0;69.4
78455;SHT31;67751;51.986;5.696;2023-08-17T06:16:08;19.0;70.0
78455;SHT31;67751;51.986;5.696;2023-08-17T06:18:39;19.0;70.3
78455;SHT31;67751;51.986;5.696;2023-08-17T06:21:09;19.1;70.6
78455;SHT31;67751;51.986;5.696;2023-08-17T06:23:38;19.1;70.4
78455;SHT31;67751;51.986;5.696;2023-08-17T06:26:08;19.1;70.3
78455;SHT31;67751;51.986;5.696;2023-08-17T06:28:38;19.1;69.6
78455;SHT31;67751;51.986;5.696;2023-08-17T06:31:07;19.1;69.5
78455;SHT31;67751;51.986;5.696;2023-08-17T06:33:37;19.1;69.6
78455;SHT31;67751;51.986;5.696;2023-08-17T06:36:07;19.2;70.0
78455;SHT31;67751;51.986;5.696;2023-08-17T06:38:36;19.2;70.4
78455;SHT31;67751;51.986;5.696;2023-08-17T06:41:06;19.2;70.6
78455;SHT31;67751;51.986;5.696;2023-08-17T06:43:36;19.2;70.1
78455;SHT31;67751;51.986;5.696;2023-08-17T06:46:06;19.2;70.2
78455;SHT31;67751;51.986;5.696;2023-08-17T06:48:35;19.3;70.8
78455;SHT31;67751;51.986;5.696;2023-08-17T06:51:05;19.3;71.2
78455;SHT31;67751;51.986;5.696;2023-08-17T06:53:35;19.4;70.9
78455;SHT31;67751;51.986;5.696;2023-08-17T06:56:05;19.4;70.9
78455;SHT31;67751;51.986;5.696;2023-08-17T06:58:36;19.4;71.3
78455;SHT31;67751;51.986;5.696;2023-08-17T07:01:06;19.5;71.0
78455;SHT31;67751;51.986;5.696;2023-08-17T07:03:35;19.5;71.2
78455;SHT31;67751;51.986;5.696;2023-08-17T07:06:06;19.5;71.4
78455;SHT31;67751;51.986;5.696;2023-08-17T07:08:35;19.6;71.0
78455;SHT31;67751;51.986;5.696;2023-08-17T07:11:05;19.6;70.8
78455;SHT31;67751;51.986;5.696;2023-08-17T07:13:36;19.6;70.5
78455;SHT31;67751;51.986;5.696;2023-08-17T07:16:06;19.6;69.9
78455;SHT31;67751;51.986;5.696;2023-08-17T07:18:36;19.7;69.3
78455;SHT31;67751;51.986;5.696;2023-08-17T07:21:05;19.7;69.9
78455;SHT31;67751;51.986;5.696;2023-08-17T07:23:35;19.7;69.2
78455;SHT31;67751;51.986;5.696;2023-08-17T07:26:05;19.8;69.8
78455;SHT31;67751;51.986;5.696;2023-08-17T07:28:34;19.8;68.9
78455;SHT31;67751;51.986;5.696;2023-08-17T07:31:04;19.8;69.7
78455;SHT31;67751;51.986;5.696;2023-08-17T07:33:34;19.8;68.7
78455;SHT31;67751;51.986;5.696;2023-08-17T07:36:04;19.9;68.7
78455;SHT31;67751;51.986;5.696;2023-08-17T07:38:34;19.9;69.2
78455;SHT31;67751;51.986;5.696;2023-08-17T07:41:04;19.9;68.5
78455;SHT31;67751;51.986;5.696;2023-08-17T07:43:33;19.9;68.5
78455;SHT31;67751;51.986;5.696;2023-08-17T07:46:05;19.9;68.9
78455;SHT31;67751;51.986;5.696;2023-08-17T07:48:34;19.9;69.3
78455;SHT31;67751;51.986;5.696;2023-08-17T07:51:04;19.9;68.9
78455;SHT31;67751;51.986;5.696;2023-08-17T07:53:34;19.9;68.5
78455;SHT31;67751;51.986;5.696;2023-08-17T07:56:03;19.9;69.3
78455;SHT31;67751;51.986;5.696;2023-08-17T07:58:33;20.0;69.3
78455;SHT31;67751;51.986;5.696;2023-08-17T08:01:03;20.0;69.0
78455;SHT31;67751;51.986;5.696;2023-08-17T08:03:33;20.0;69.5
78455;SHT31;67751;51.986;5.696;2023-08-17T08:06:02;20.0;69.3
78455;SHT31;67751;51.986;5.696;2023-08-17T08:08:32;20.0;69.2
78455;SHT31;67751;51.986;5.696;2023-08-17T08:11:02;20.1;69.3
78455;SHT31;67751;51.986;5.696;2023-08-17T08:13:32;20.1;69.3
78455;SHT31;67751;51.986;5.696;2023-08-17T08:16:05;20.2;69.8
78455;SHT31;67751;51.986;5.696;2023-08-17T08:18:35;20.2;68.9
78455;SHT31;67751;51.986;5.696;2023-08-17T08:21:04;20.2;68.5
78455;SHT31;67751;51.986;5.696;2023-08-17T08:23:34;20.2;69.0
78455;SHT31;67751;51.986;5.696;2023-08-17T08:26:04;20.3;69.0
78455;SHT31;67751;51.986;5.696;2023-08-17T08:28:33;20.3;68.7
78455;SHT31;67751;51.986;5.696;2023-08-17T08:31:03;20.3;68.9
78455;SHT31;67751;51.986;5.696;2023-08-17T08:33:33;20.3;69.1
78455;SHT31;67751;51.986;5.696;2023-08-17T08:36:03;20.4;69.5
78455;SHT31;67751;51.986;5.696;2023-08-17T08:38:33;20.4;69.9
78455;SHT31;67751;51.986;5.696;2023-08-17T08:41:03;20.4;69.4
78455;SHT31;67751;51.986;5.696;2023-08-17T08:43:32;20.4;69.2
78455;SHT31;67751;51.986;5.696;2023-08-17T08:46:02;20.5;69.9
78455;SHT31;67751;51.986;5.696;2023-08-17T08:48:34;20.5;69.0
78455;SHT31;67751;51.986;5.696;2023-08-17T08:51:08;20.5;68.7
78455;SHT31;67751;51.986;5.696;2023-08-17T08:53:43;20.5;68.5
78455;SHT31;67751;51.986;5.696;2023-08-17T08:56:15;20.5;68.3
78455;SHT31;67751;51.986;5.696;2023-08-17T08:58:47;20.5;68.8
78455;SHT31;67751;51.986;5.696;2023-08-17T09:01:18;20.5;69.0
78455;SHT31;67751;51.986;5.696;2023-08-17T09:03:48;20.5;68.8
78455;SHT31;67751;51.986;5.696;2023-08-17T09:06:19;20.5;69.2
78455;SHT31;67751;51.986;5.696;2023-08-17T09:08:53;20.5;68.3
78455;SHT31;67751;51.986;5.696;2023-08-17T09:11:23;20.5;68.8
78455;SHT31;67751;51.986;5.696;2023-08-17T09:13:53;20.5;69.1
78455;SHT31;67751;51.986;5.696;2023-08-17T09:16:25;20.5;69.6
78455;SHT31;67751;51.986;5.696;2023-08-17T09:18:56;20.5;69.2
78455;SHT31;67751;51.986;5.696;2023-08-17T09:21:31;20.5;69.7
78455;SHT31;67751;51.986;5.696;2023-08-17T09:24:01;20.5;68.5
78455;SHT31;67751;51.986;5.696;2023-08-17T09:26:32;20.5;69.1
78455;SHT31;67751;51.986;5.696;2023-08-17T09:29:20;20.5;69.7
78455;SHT31;67751;51.986;5.696;2023-08-17T09:31:50;20.5;69.8
78455;SHT31;67751;51.986;5.696;2023-08-17T09:34:20;20.5;68.8
78455;SHT31;67751;51.986;5.696;2023-08-17T09:36:50;20.5;69.2
78455;SHT31;67751;51.986;5.696;2023-08-17T09:39:19;20.6;68.3
78455;SHT31;67751;51.986;5.696;2023-08-17T09:41:49;20.6;68.4
78455;SHT31;67751;51.986;5.696;2023-08-17T09:44:19;20.6;68.8
78455;SHT31;67751;51.986;5.696;2023-08-17T09:46:48;20.6;68.3
78455;SHT31;67751;51.986;5.696;2023-08-17T09:49:19;20.6;68.9
78455;SHT31;67751;51.986;5.696;2023-08-17T09:51:48;20.6;69.1
78455;SHT31;67751;51.986;5.696;2023-08-17T09:54:23;20.6;67.6
78455;SHT31;67751;51.986;5.696;2023-08-17T09:56:55;20.6;68.3
78455;SHT31;67751;51.986;5.696;2023-08-17T09:59:25;20.6;68.2
78455;SHT31;67751;51.986;5.696;2023-08-17T10:01:56;20.6;68.7
78455;SHT31;67751;51.986;5.696;2023-08-17T10:04:28;20.6;68.3
78455;SHT31;67751;51.986;5.696;2023-08-17T10:07:03;20.6;69.1
78455;SHT31;67751;51.986;5.696;2023-08-17T10:09:39;20.6;69.1
78455;SHT31;67751;51.986;5.696;2023-08-17T10:12:15;20.6;69.8
78455;SHT31;67751;51.986;5.696;2023-08-17T10:14:49;20.6;70.2
78455;SHT31;67751;51.986;5.696;2023-08-17T10:17:26;20.6;70.3
78455;SHT31;67751;51.986;5.696;2023-08-17T10:19:58;20.7;70.2
78455;SHT31;67751;51.986;5.696;2023-08-17T10:22:36;20.7;70.1
78455;SHT31;67751;51.986;5.696;2023-08-17T10:25:11;20.7;70.6
78455;SHT31;67751;51.986;5.696;2023-08-17T10:27:42;20.7;70.4
78455;SHT31;67751;51.986;5.696;2023-08-17T10:30:13;20.7;70.2
78455;SHT31;67751;51.986;5.696;2023-08-17T10:32:45;20.8;70.2
78455;SHT31;67751;51.986;5.696;2023-08-17T10:35:15;20.8;69.6
78455;SHT31;67751;51.986;5.696;2023-08-17T10:37:45;20.8;69.3
78455;SHT31;67751;51.986;5.696;2023-08-17T10:40:17;20.8;69.7
78455;SHT31;67751;51.986;5.696;2023-08-17T10:42:55;20.8;69.4
78455;SHT31;67751;51.986;5.696;2023-08-17T10:45:31;20.8;69.7
78455;SHT31;67751;51.986;5.696;2023-08-17T10:48:28;20.9;69.8
78455;SHT31;67751;51.986;5.696;2023-08-17T10:51:01;20.9;69.8
78455;SHT31;67751;51.986;5.696;2023-08-17T10:53:36;20.9;69.7
78455;SHT31;67751;51.986;5.696;2023-08-17T10:56:11;21.0;70.6
78455;SHT31;67751;51.986;5.696;2023-08-17T10:58:44;21.0;70.7
78455;SHT31;67751;51.986;5.696;2023-08-17T11:01:14;21.0;69.9
78455;SHT31;67751;51.986;5.696;2023-08-17T11:04:10;21.0;70.4
78455;SHT31;67751;51.986;5.696;2023-08-17T11:06:42;21.1;69.9
78455;SHT31;67751;51.986;5.696;2023-08-17T11:09:12;21.1;69.3
78455;SHT31;67751;51.986;5.696;2023-08-17T11:11:53;21.1;68.9
78455;SHT31;67751;51.986;5.696;2023-08-17T11:14:23;21.1;69.0
78455;SHT31;67751;51.986;5.696;2023-08-17T11:16:52;21.1;67.9
78455;SHT31;67751;51.986;5.696;2023-08-17T11:19:23;21.1;67.4
78455;SHT31;67751;51.986;5.696;2023-08-17T11:21:53;21.1;68.1
78455;SHT31;67751;51.986;5.696;2023-08-17T11:24:23;21.1;69.0
78455;SHT31;67751;51.986;5.696;2023-08-17T11:26:55;21.1;68.7
78455;SHT31;67751;51.986;5.696;2023-08-17T11:29:25;21.1;67.6
78455;SHT31;67751;51.986;5.696;2023-08-17T11:31:54;21.1;68.1
78455;SHT31;67751;51.986;5.696;2023-08-17T11:34:25;21.1;69.0
78455;SHT31;67751;51.986;5.696;2023-08-17T11:36:59;21.1;69.1
78455;SHT31;67751;51.986;5.696;2023-08-17T11:39:32;21.1;69.5
78455;SHT31;67751;51.986;5.696;2023-08-17T11:42:03;21.2;70.0
78455;SHT31;67751;51.986;5.696;2023-08-17T11:44:33;21.2;69.7
78455;SHT31;67751;51.986;5.696;2023-08-17T11:47:04;21.2;69.1
78455;SHT31;67751;51.986;5.696;2023-08-17T11:49:33;21.2;68.5
78455;SHT31;67751;51.986;5.696;2023-08-17T11:52:03;21.2;68.1
78455;SHT31;67751;51.986;5.696;2023-08-17T11:54:34;21.2;67.9
78455;SHT31;67751;51.986;5.696;2023-08-17T11:57:04;21.2;68.2
78455;SHT31;67751;51.986;5.696;2023-08-17T11:59:34;21.2;69.1
78455;SHT31;67751;51.986;5.696;2023-08-17T12:02:05;21.2;69.5
78455;SHT31;67751;51.986;5.696;2023-08-17T12:04:36;21.2;68.2
78455;SHT31;67751;51.986;5.696;2023-08-17T12:07:06;21.2;68.1
78455;SHT31;67751;51.986;5.696;2023-08-17T12:09:36;21.2;68.6
78455;SHT31;67751;51.986;5.696;2023-08-17T12:12:06;21.2;68.6
78455;SHT31;67751;51.986;5.696;2023-08-17T12:14:36;21.2;69.2
78455;SHT31;67751;51.986;5.696;2023-08-17T12:17:05;21.2;69.7
78455;SHT31;67751;51.986;5.696;2023-08-17T12:19:35;21.2;69.6
78455;SHT31;67751;51.986;5.696;2023-08-17T12:22:05;21.2;69.4
78455;SHT31;67751;51.986;5.696;2023-08-17T12:24:36;21.2;69.9
78455;SHT31;67751;51.986;5.696;2023-08-17T12:27:07;21.2;70.1
78455;SHT31;67751;51.986;5.696;2023-08-17T12:29:47;21.2;69.1
78455;SHT31;67751;51.986;5.696;2023-08-17T12:32:19;21.2;69.2
78455;SHT31;67751;51.986;5.696;2023-08-17T12:34:49;21.2;69.0
78455;SHT31;67751;51.986;5.696;2023-08-17T12:37:20;21.2;69.5
78455;SHT31;67751;51.986;5.696;2023-08-17T12:39:50;21.2;68.9
78455;SHT31;67751;51.986;5.696;2023-08-17T12:42:22;21.2;68.7
78455;SHT31;67751;51.986;5.696;2023-08-17T12:44:51;21.2;69.0
78455;SHT31;67751;51.986;5.696;2023-08-17T12:47:21;21.2;68.6
78455;SHT31;67751;51.986;5.696;2023-08-17T12:49:51;21.2;68.8
78455;SHT31;67751;51.986;5.696;2023-08-17T12:52:21;21.2;69.2
78455;SHT31;67751;51.986;5.696;2023-08-17T12:54:50;21.2;69.9
78455;SHT31;67751;51.986;5.696;2023-08-17T12:57:20;21.2;69.7
78455;SHT31;67751;51.986;5.696;2023-08-17T12:59:50;21.2;69.1
78455;SHT31;67751;51.986;5.696;2023-08-17T13:02:20;21.2;69.8
78455;SHT31;67751;51.986;5.696;2023-08-17T13:04:52;21.3;68.5
78455;SHT31;67751;51.986;5.696;2023-08-17T13:07:22;21.3;69.0
78455;SHT31;67751;51.986;5.696;2023-08-17T13:09:52;21.3;69.3
78455;SHT31;67751;51.986;5.696;2023-08-17T13:12:22;21.3;69.5
78455;SHT31;67751;51.986;5.696;2023-08-17T13:14:51;21.3;69.9
78455;SHT31;67751;51.986;5.696;2023-08-17T13:17:21;21.3;70.3
78455;SHT31;67751;51.986;5.696;2023-08-17T13:19:50;21.3;70.0
78455;SHT31;67751;51.986;5.696;2023-08-17T13:22:20;21.3;70.7
78455;SHT31;67751;51.986;5.696;2023-08-17T13:24:50;21.3;71.2
78455;SHT31;67751;51.986;5.696;2023-08-17T13:27:19;21.3;70.6
78455;SHT31;67751;51.986;5.696;2023-08-17T13:29:49;21.3;70.3
78455;SHT31;67751;51.986;5.696;2023-08-17T13:32:19;21.4;69.2
78455;SHT31;67751;51.986;5.696;2023-08-17T13:34:48;21.4;69.6
78455;SHT31;67751;51.986;5.696;2023-08-17T13:37:18;21.4;70.1
78455;SHT31;67751;51.986;5.696;2023-08-17T13:39:50;21.4;70.2
78455;SHT31;67751;51.986;5.696;2023-08-17T13:42:20;21.4;69.6
78455;SHT31;67751;51.986;5.696;2023-08-17T13:44:51;21.4;70.3
78455;SHT31;67751;51.986;5.696;2023-08-17T13:47:23;21.4;70.6
78455;SHT31;67751;51.986;5.696;2023-08-17T13:49:53;21.4;70.8
78455;SHT31;67751;51.986;5.696;2023-08-17T13:52:23;21.4;70.2
78455;SHT31;67751;51.986;5.696;2023-08-17T13:54:53;21.4;69.7
78455;SHT31;67751;51.986;5.696;2023-08-17T13:57:22;21.4;70.2
78455;SHT31;67751;51.986;5.696;2023-08-17T13:59:52;21.4;69.6
78455;SHT31;67751;51.986;5.696;2023-08-17T14:02:22;21.4;69.8
78455;SHT31;67751;51.986;5.696;2023-08-17T14:04:51;21.4;70.4
78455;SHT31;67751;51.986;5.696;2023-08-17T14:07:21;21.4;70.1
78455;SHT31;67751;51.986;5.696;2023-08-17T14:09:50;21.4;70.4
78455;SHT31;67751;51.986;5.696;2023-08-17T14:12:20;21.4;69.9
78455;SHT31;67751;51.986;5.696;2023-08-17T14:14:50;21.3;69.4
78455;SHT31;67751;51.986;5.696;2023-08-17T14:17:19;21.3;70.2
78455;SHT31;67751;51.986;5.696;2023-08-17T14:19:49;21.3;70.7
78455;SHT31;67751;51.986;5.696;2023-08-17T14:22:18;21.3;70.7
78455;SHT31;67751;51.986;5.696;2023-08-17T14:24:48;21.3;71.1
78455;SHT31;67751;51.986;5.696;2023-08-17T14:27:17;21.3;71.1
78455;SHT31;67751;51.986;5.696;2023-08-17T14:29:47;21.3;70.9
78455;SHT31;67751;51.986;5.696;2023-08-17T14:32:17;21.3;71.2
78455;SHT31;67751;51.986;5.696;2023-08-17T14:34:46;21.3;71.0
78455;SHT31;67751;51.986;5.696;2023-08-17T14:37:16;21.3;71.3
78455;SHT31;67751;51.986;5.696;2023-08-17T14:39:46;21.3;71.1
78455;SHT31;67751;51.986;5.696;2023-08-17T14:42:15;21.3;70.8
78455;SHT31;67751;51.986;5.696;2023-08-17T14:44:45;21.3;71.3
78455;SHT31;67751;51.986;5.696;2023-08-17T14:47:15;21.3;70.7
78455;SHT31;67751;51.986;5.696;2023-08-17T14:49:44;21.3;70.5
78455;SHT31;67751;51.986;5.696;2023-08-17T14:52:14;21.3;71.3
78455;SHT31;67751;51.986;5.696;2023-08-17T14:54:43;21.3;71.4
78455;SHT31;67751;51.986;5.696;2023-08-17T14:57:13;21.3;70.7
78455;SHT31;67751;51.986;5.696;2023-08-17T14:59:42;21.3;71.0
78455;SHT31;67751;51.986;5.696;2023-08-17T15:02:12;21.3;70.8
78455;SHT31;67751;51.986;5.696;2023-08-17T15:04:44;21.3;70.9
78455;SHT31;67751;51.986;5.696;2023-08-17T15:07:13;21.3;70.8
78455;SHT31;67751;51.986;5.696;2023-08-17T15:09:44;21.3;70.7
78455;SHT31;67751;51.986;5.696;2023-08-17T15:12:13;21.3;70.8
78455;SHT31;67751;51.986;5.696;2023-08-17T15:14:43;21.3;71.9
78455;SHT31;67751;51.986;5.696;2023-08-17T15:17:13;21.3;71.3
78455;SHT31;67751;51.986;5.696;2023-08-17T15:19:44;21.3;71.3
78455;SHT31;67751;51.986;5.696;2023-08-17T15:22:14;21.3;71.5
78455;SHT31;67751;51.986;5.696;2023-08-17T15:24:44;21.3;71.8
78455;SHT31;67751;51.986;5.696;2023-08-17T15:27:13;21.3;71.3
78455;SHT31;67751;51.986;5.696;2023-08-17T15:29:43;21.3;71.7
78455;SHT31;67751;51.986;5.696;2023-08-17T15:32:13;21.3;71.8
78455;SHT31;67751;51.986;5.696;2023-08-17T15:34:42;21.3;72.0
78455;SHT31;67751;51.986;5.696;2023-08-17T15:37:12;21.3;72.0
78455;SHT31;67751;51.986;5.696;2023-08-17T15:39:41;21.4;72.5
78455;SHT31;67751;51.986;5.696;2023-08-17T15:42:11;21.4;71.9
78455;SHT31;67751;51.986;5.696;2023-08-17T15:44:41;21.4;72.2
78455;SHT31;67751;51.986;5.696;2023-08-17T15:47:11;21.4;72.2
78455;SHT31;67751;51.986;5.696;2023-08-17T15:49:40;21.4;72.1
78455;SHT31;67751;51.986;5.696;2023-08-17T15:52:10;21.5;71.6
78455;SHT31;67751;51.986;5.696;2023-08-17T15:54:40;21.5;71.5
78455;SHT31;67751;51.986;5.696;2023-08-17T15:57:09;21.5;72.4
78455;SHT31;67751;51.986;5.696;2023-08-17T15:59:41;21.5;71.7
78455;SHT31;67751;51.986;5.696;2023-08-17T16:02:11;21.5;70.9
78455;SHT31;67751;51.986;5.696;2023-08-17T16:04:40;21.5;71.3
78455;SHT31;67751;51.986;5.696;2023-08-17T16:07:10;21.5;71.8
78455;SHT31;67751;51.986;5.696;2023-08-17T16:09:40;21.5;71.5
78455;SHT31;67751;51.986;5.696;2023-08-17T16:12:10;21.5;72.1
78455;SHT31;67751;51.986;5.696;2023-08-17T16:14:40;21.5;72.0
78455;SHT31;67751;51.986;5.696;2023-08-17T16:17:09;21.5;72.0
78455;SHT31;67751;51.986;5.696;2023-08-17T16:19:39;21.5;71.9
78455;SHT31;67751;51.986;5.696;2023-08-17T16:22:09;21.5;71.6
78455;SHT31;67751;51.986;5.696;2023-08-17T16:24:38;21.5;71.7